createdAt,value
2023-05-17T00:03:35.994Z,56.60
2023-05-17T00:06:04.544Z,56.66
2023-05-17T00:08:33.507Z,56.40
2023-05-17T00:11:01.707Z,56.25
2023-05-17T00:13:30.789Z,56.03
2023-05-17T00:15:58.836Z,56.25
2023-05-17T00:18:27.260Z,55.94
2023-05-17T00:20:55.667Z,55.83
2023-05-17T00:23:24.291Z,55.98
2023-05-17T00:25:52.535Z,56.15
2023-05-17T00:28:21.216Z,56.17
2023-05-17T00:30:49.946Z,56.33
2023-05-17T00:33:18.981Z,56.03
2023-05-17T00:35:47.318Z,56.26
2023-05-17T00:38:15.610Z,56.24
2023-05-17T00:40:43.944Z,55.71
2023-05-17T00:43:13.299Z,55.81
2023-05-17T00:45:42.785Z,55.45
2023-05-17T00:48:11.032Z,55.36
2023-05-17T00:50:39.495Z,55.12
2023-05-17T00:53:09.831Z,55.36
2023-05-17T00:55:39.450Z,55.44
2023-05-17T00:58:08.155Z,55.25
2023-05-17T01:00:36.281Z,55.38
2023-05-17T01:03:05.828Z,55.28
2023-05-17T01:05:35.111Z,54.84
2023-05-17T01:08:04.226Z,54.96
2023-05-17T01:11:10.782Z,54.66
2023-05-17T01:14:03.832Z,54.58
2023-05-17T01:16:39.449Z,54.13
2023-05-17T01:19:50.446Z,53.72
2023-05-17T01:22:31.963Z,54.14
2023-05-17T01:25:43.578Z,54.10
2023-05-17T01:28:14.193Z,54.00
2023-05-17T01:30:47.316Z,53.43
2023-05-17T01:33:16.608Z,53.21
2023-05-17T01:35:44.885Z,53.37
2023-05-17T01:38:13.364Z,53.33
2023-05-17T01:41:04.224Z,53.42
2023-05-17T01:44:00.493Z,52.96
2023-05-17T01:46:34.754Z,53.19
2023-05-17T01:49:16.349Z,52.89
2023-05-17T01:51:49.347Z,52.39
2023-05-17T01:54:23.489Z,52.73
2023-05-17T01:56:57.822Z,52.47
2023-05-17T01:59:27.790Z,52.55
2023-05-17T02:02:00.934Z,52.63
2023-05-17T02:04:30.879Z,53.03
2023-05-17T02:06:59.169Z,52.11
2023-05-17T02:09:27.981Z,51.47
2023-05-17T02:11:57.036Z,52.27
2023-05-17T02:14:25.770Z,51.93
2023-05-17T02:16:54.469Z,51.94
2023-05-17T02:19:23.019Z,51.96
2023-05-17T02:21:51.320Z,51.75
2023-05-17T02:24:21.608Z,51.47
2023-05-17T02:26:49.787Z,51.29
2023-05-17T02:29:18.048Z,52.10
2023-05-17T02:31:46.756Z,52.20
2023-05-17T02:34:15.237Z,51.60
2023-05-17T02:36:43.458Z,51.58
2023-05-17T02:39:12.557Z,51.75
2023-05-17T02:41:41.777Z,51.91
2023-05-17T02:44:09.902Z,51.87
2023-05-17T02:46:38.720Z,51.98
2023-05-17T02:49:07.451Z,51.52
2023-05-17T02:51:35.984Z,51.58
2023-05-17T02:54:05.197Z,51.41
2023-05-17T02:56:34.091Z,51.42
2023-05-17T02:59:03.539Z,51.40
2023-05-17T03:01:31.761Z,51.49
2023-05-17T03:04:00.748Z,50.60
2023-05-17T03:06:29.303Z,51.10
2023-05-17T03:08:57.463Z,51.40
2023-05-17T03:11:26.825Z,51.44
2023-05-17T03:13:55.799Z,51.36
2023-05-17T03:16:24.587Z,51.30
2023-05-17T03:18:53.001Z,51.07
2023-05-17T03:21:21.366Z,51.37
2023-05-17T03:23:50.177Z,51.47
2023-05-17T03:26:19.238Z,51.55
2023-05-17T03:28:48.071Z,51.07
2023-05-17T03:31:16.507Z,50.84
2023-05-17T03:33:45.566Z,51.13
2023-05-17T03:36:15.301Z,51.06
2023-05-17T03:38:44.391Z,51.10
2023-05-17T03:41:13.107Z,51.60
2023-05-17T03:43:41.993Z,51.17
2023-05-17T03:46:10.868Z,51.23
2023-05-17T03:48:39.048Z,51.45
2023-05-17T03:51:07.395Z,51.63
2023-05-17T03:53:36.673Z,51.41
2023-05-17T03:56:05.679Z,51.30
2023-05-17T03:58:34.001Z,50.55
2023-05-17T04:01:04.327Z,51.13
2023-05-17T04:03:33.374Z,51.08
2023-05-17T04:06:05.839Z,51.36
2023-05-17T04:08:35.767Z,51.04
2023-05-17T04:11:04.536Z,51.23
2023-05-17T04:13:32.891Z,51.42
2023-05-17T04:16:01.236Z,51.66
2023-05-17T04:18:30.758Z,51.76
2023-05-17T04:20:59.530Z,51.51
2023-05-17T04:23:28.265Z,51.63
2023-05-17T04:25:56.593Z,51.74
2023-05-17T04:28:26.304Z,51.95
2023-05-17T04:30:56.377Z,51.68
2023-05-17T04:33:25.191Z,51.56
2023-05-17T04:35:57.116Z,52.25
2023-05-17T04:38:25.297Z,52.15
2023-05-17T04:40:54.449Z,51.90
2023-05-17T04:43:22.883Z,52.36
2023-05-17T04:45:57.060Z,52.01
2023-05-17T04:48:26.022Z,52.16
2023-05-17T04:50:54.382Z,52.63
2023-05-17T04:53:22.564Z,52.70
2023-05-17T04:55:51.419Z,52.59
2023-05-17T04:58:19.553Z,52.56
2023-05-17T05:00:48.320Z,52.62
2023-05-17T05:03:16.586Z,52.45
2023-05-17T05:05:45.911Z,51.94
2023-05-17T05:08:14.301Z,52.00
2023-05-17T05:10:43.766Z,52.43
2023-05-17T05:13:12.992Z,52.36
2023-05-17T05:15:43.891Z,53.00
2023-05-17T05:18:12.332Z,52.47
2023-05-17T05:20:40.411Z,52.09
2023-05-17T05:23:08.833Z,52.38
2023-05-17T05:25:38.254Z,52.17
2023-05-17T05:28:06.906Z,52.02
2023-05-17T05:30:35.224Z,52.03
2023-05-17T05:33:04.193Z,52.10
2023-05-17T05:35:32.880Z,52.09
2023-05-17T05:38:01.264Z,51.85
2023-05-17T05:40:29.934Z,51.42
2023-05-17T05:42:58.606Z,51.87
2023-05-17T05:45:26.844Z,51.10
2023-05-17T05:47:55.473Z,51.59
2023-05-17T05:50:23.800Z,50.39
2023-05-17T05:52:53.484Z,50.73
2023-05-17T05:55:24.525Z,51.09
2023-05-17T05:57:52.782Z,51.43
2023-05-17T06:00:21.295Z,50.95
2023-05-17T06:02:49.500Z,51.03
2023-05-17T06:05:17.942Z,51.72
2023-05-17T06:07:46.369Z,52.22
2023-05-17T06:10:14.704Z,52.37
2023-05-17T06:12:42.996Z,52.55
2023-05-17T06:15:11.497Z,53.38
2023-05-17T06:17:39.699Z,53.63
2023-05-17T06:20:10.144Z,54.36
2023-05-17T06:22:38.948Z,55.89
2023-05-17T06:25:07.779Z,59.12
2023-05-17T06:27:38.907Z,60.40
2023-05-17T06:30:09.263Z,60.07
2023-05-17T06:32:37.576Z,59.34
2023-05-17T06:35:06.227Z,58.80
2023-05-17T06:37:34.418Z,57.90
2023-05-17T06:40:14.832Z,57.19
2023-05-17T06:42:44.140Z,56.86
2023-05-17T06:45:12.862Z,56.60
2023-05-17T06:47:41.321Z,56.82
2023-05-17T06:50:09.933Z,56.89
2023-05-17T06:52:38.310Z,56.44
2023-05-17T06:55:07.392Z,55.20
2023-05-17T06:57:36.597Z,56.04
2023-05-17T07:00:05.652Z,56.66
2023-05-17T07:02:34.885Z,57.22
2023-05-17T07:05:05.780Z,56.06
2023-05-17T07:07:34.587Z,54.99
2023-05-17T07:10:03.152Z,54.97
2023-05-17T07:12:32.835Z,54.06
2023-05-17T07:15:01.216Z,52.87
2023-05-17T07:17:29.809Z,51.85
2023-05-17T07:19:58.277Z,51.99
2023-05-17T07:22:26.542Z,52.23
2023-05-17T07:24:54.766Z,51.46
2023-05-17T07:27:23.158Z,51.07
2023-05-17T07:29:51.267Z,50.95
2023-05-17T07:32:19.625Z,50.90
2023-05-17T07:34:48.358Z,50.36
2023-05-17T07:37:19.165Z,51.71
2023-05-17T07:39:47.625Z,53.09
2023-05-17T07:42:16.311Z,53.82
2023-05-17T07:44:44.725Z,53.04
2023-05-17T07:47:12.971Z,49.50
2023-05-17T07:49:41.521Z,45.28
2023-05-17T07:52:10.437Z,43.68
2023-05-17T07:54:40.018Z,41.57
2023-05-17T07:57:08.106Z,38.60
2023-05-17T07:59:36.220Z,37.51
2023-05-17T08:02:04.819Z,35.58
2023-05-17T08:04:33.340Z,35.21
2023-05-17T08:07:02.542Z,34.31
2023-05-17T08:09:30.714Z,33.58
2023-05-17T08:11:58.872Z,33.31
2023-05-17T08:14:29.055Z,33.44
2023-05-17T08:16:58.192Z,33.04
2023-05-17T08:19:26.666Z,33.44
2023-05-17T08:21:55.011Z,33.75
2023-05-17T08:24:23.146Z,34.09
2023-05-17T08:26:53.326Z,33.88
2023-05-17T08:29:22.326Z,33.53
2023-05-17T08:31:50.937Z,33.03
2023-05-17T08:34:19.099Z,32.23
2023-05-17T08:36:47.288Z,33.33
2023-05-17T08:39:15.935Z,34.41
2023-05-17T08:41:46.976Z,35.45
2023-05-17T08:44:16.979Z,36.14
2023-05-17T08:46:48.092Z,36.06
2023-05-17T08:49:17.013Z,35.80
2023-05-17T08:51:47.323Z,35.96
2023-05-17T08:54:15.775Z,34.88
2023-05-17T08:56:45.079Z,34.52
2023-05-17T08:59:13.634Z,34.04
2023-05-17T09:01:45.073Z,33.60
2023-05-17T09:04:13.981Z,32.50
2023-05-17T09:06:43.369Z,33.20
2023-05-17T09:09:12.224Z,33.80
2023-05-17T09:11:40.627Z,33.49
2023-05-17T09:14:09.206Z,33.69
2023-05-17T09:16:38.410Z,33.94
2023-05-17T09:19:08.205Z,34.42
2023-05-17T09:21:37.039Z,34.10
2023-05-17T09:24:07.788Z,32.70
2023-05-17T09:26:46.016Z,32.35
2023-05-17T09:29:16.468Z,32.13
2023-05-17T09:31:45.269Z,32.70
2023-05-17T09:34:19.106Z,33.15
2023-05-17T09:36:47.312Z,33.23
2023-05-17T09:39:16.108Z,33.87
2023-05-17T09:41:47.173Z,34.38
2023-05-17T09:44:17.030Z,34.25
2023-05-17T09:46:49.044Z,34.34
2023-05-17T09:49:19.517Z,34.46
2023-05-17T09:51:49.593Z,34.59
2023-05-17T09:54:17.859Z,35.67
2023-05-17T09:56:54.158Z,35.66
2023-05-17T09:59:25.952Z,35.53
2023-05-17T10:01:57.790Z,35.72
2023-05-17T10:04:30.938Z,36.18
2023-05-17T10:07:01.665Z,36.53
2023-05-17T10:09:32.937Z,36.37
2023-05-17T10:12:03.053Z,35.06
2023-05-17T10:14:32.879Z,35.64
2023-05-17T10:17:02.484Z,35.70
2023-05-17T10:19:31.422Z,36.35
2023-05-17T10:22:19.019Z,37.06
2023-05-17T10:24:51.745Z,37.79
2023-05-17T10:27:21.014Z,36.93
2023-05-17T10:29:50.875Z,36.67
2023-05-17T10:32:21.934Z,37.04
2023-05-17T10:34:58.141Z,37.06
2023-05-17T10:37:35.621Z,38.44
2023-05-17T10:40:05.285Z,38.64
2023-05-17T10:42:33.980Z,39.09
2023-05-17T10:45:03.112Z,38.82
2023-05-17T10:47:32.844Z,39.20
2023-05-17T10:50:02.256Z,38.45
2023-05-17T10:52:31.072Z,39.05
2023-05-17T10:55:00.027Z,39.68
2023-05-17T11:00:09.002Z,40.03
2023-05-17T11:02:42.242Z,39.30
2023-05-17T11:05:24.385Z,39.22
2023-05-17T11:07:52.899Z,39.64
2023-05-17T11:10:23.532Z,40.03
2023-05-17T11:12:52.444Z,40.01
2023-05-17T11:15:25.178Z,40.30
2023-05-17T11:17:54.005Z,39.42
2023-05-17T11:20:40.721Z,39.30
2023-05-17T11:23:17.045Z,39.44
2023-05-17T11:25:46.519Z,39.42
2023-05-17T11:28:21.619Z,39.30
2023-05-17T11:30:49.839Z,39.58
2023-05-17T11:33:29.710Z,39.89
2023-05-17T11:36:06.910Z,40.85
2023-05-17T11:38:35.099Z,42.23
2023-05-17T11:43:51.122Z,42.03
2023-05-17T11:46:25.290Z,42.63
2023-05-17T11:48:55.998Z,43.37
2023-05-17T11:51:25.863Z,44.69
2023-05-17T11:53:55.058Z,45.62
2023-05-17T11:56:35.535Z,46.91
2023-05-17T11:59:11.296Z,49.04
2023-05-17T12:01:44.847Z,50.02
2023-05-17T12:04:13.719Z,50.36
2023-05-17T12:06:44.653Z,50.27
2023-05-17T12:09:16.709Z,50.19
2023-05-17T12:11:45.086Z,51.18
2023-05-17T12:14:17.525Z,51.90
2023-05-17T12:16:50.733Z,51.77
2023-05-17T12:19:20.708Z,50.78
2023-05-17T12:21:49.861Z,49.92
2023-05-17T12:24:18.176Z,49.35
2023-05-17T12:26:48.507Z,49.49
2023-05-17T12:29:20.239Z,49.47
2023-05-17T12:31:50.976Z,49.85
2023-05-17T12:34:19.482Z,49.49
2023-05-17T12:36:47.856Z,49.05
2023-05-17T12:39:17.077Z,47.94
2023-05-17T12:41:45.897Z,48.33
2023-05-17T12:44:16.155Z,47.83
2023-05-17T12:46:45.210Z,48.25
2023-05-17T12:49:13.580Z,48.01
2023-05-17T12:51:46.695Z,47.63
2023-05-17T12:54:26.378Z,47.27
2023-05-17T12:56:54.863Z,48.53
2023-05-17T12:59:23.643Z,50.17
2023-05-17T13:01:57.341Z,51.70
2023-05-17T13:04:32.432Z,52.52
2023-05-17T13:07:04.504Z,52.86
2023-05-17T13:09:34.578Z,53.62
2023-05-17T13:12:07.570Z,53.56
2023-05-17T13:14:39.337Z,52.96
2023-05-17T13:17:13.527Z,53.14
2023-05-17T13:19:41.740Z,53.17
2023-05-17T13:22:11.014Z,53.27
2023-05-17T13:24:39.982Z,53.68
2023-05-17T13:27:08.976Z,54.57
2023-05-17T13:29:41.259Z,55.32
2023-05-17T13:32:11.982Z,54.79
2023-05-17T13:34:41.310Z,55.39
2023-05-17T13:37:12.082Z,55.49
2023-05-17T13:39:42.030Z,55.86
2023-05-17T13:42:13.868Z,55.68
2023-05-17T13:44:42.543Z,55.64
2023-05-17T13:47:10.743Z,55.73
2023-05-17T13:49:39.163Z,56.13
2023-05-17T13:52:09.302Z,56.00
2023-05-17T13:54:37.880Z,55.78
2023-05-17T13:57:07.207Z,55.86
2023-05-17T13:59:36.156Z,55.42
2023-05-17T14:02:04.440Z,55.07
2023-05-17T14:04:33.732Z,55.87
2023-05-17T14:07:03.615Z,56.34
2023-05-17T14:09:32.104Z,56.37
2023-05-17T14:12:01.757Z,56.55
2023-05-17T14:14:30.858Z,57.88
2023-05-17T14:17:00.976Z,57.72
2023-05-17T14:19:29.465Z,57.40
2023-05-17T14:21:59.429Z,58.19
2023-05-17T14:24:29.556Z,58.36
2023-05-17T14:26:57.862Z,58.94
2023-05-17T14:29:26.475Z,59.41
2023-05-17T14:31:54.736Z,60.11
2023-05-17T14:34:23.578Z,60.06
2023-05-17T14:36:53.592Z,60.49
2023-05-17T14:39:21.752Z,60.50
2023-05-17T14:41:49.928Z,60.84
2023-05-17T14:44:18.372Z,61.51
2023-05-17T14:46:46.605Z,61.64
2023-05-17T14:49:14.954Z,61.37
2023-05-17T14:51:43.837Z,61.70
2023-05-17T14:54:13.641Z,62.18
2023-05-17T14:56:42.432Z,61.96
2023-05-17T14:59:10.876Z,62.25
2023-05-17T15:01:39.125Z,62.64
2023-05-17T15:04:07.934Z,62.25
2023-05-17T15:06:36.294Z,62.71
2023-05-17T15:09:04.735Z,63.30
2023-05-17T15:11:32.831Z,63.51
2023-05-17T15:14:01.180Z,63.29
2023-05-17T15:16:29.412Z,63.32
2023-05-17T15:18:57.958Z,63.58
2023-05-17T15:21:26.575Z,63.91
2023-05-17T15:23:56.287Z,63.94
2023-05-17T15:26:24.681Z,63.51
2023-05-17T15:28:53.289Z,63.84
2023-05-17T15:31:21.950Z,64.11
2023-05-17T15:33:50.872Z,64.10
2023-05-17T15:36:19.676Z,64.63
2023-05-17T15:38:47.946Z,64.64
2023-05-17T15:41:18.134Z,64.79
2023-05-17T15:43:46.714Z,64.88
2023-05-17T15:46:15.204Z,64.97
2023-05-17T15:48:43.643Z,64.54
2023-05-17T15:51:12.431Z,64.75
2023-05-17T15:53:40.834Z,64.59
2023-05-17T15:56:09.170Z,64.20
2023-05-17T15:58:37.523Z,64.55
2023-05-17T16:01:06.284Z,64.58
2023-05-17T16:03:34.688Z,64.96
2023-05-17T16:06:03.290Z,65.23
2023-05-17T16:08:32.283Z,65.65
2023-05-17T16:11:02.173Z,65.38
2023-05-17T16:13:31.058Z,65.34
2023-05-17T16:16:00.316Z,65.08
2023-05-17T16:18:28.637Z,64.68
2023-05-17T16:20:58.854Z,64.41
2023-05-17T16:23:27.097Z,64.48
2023-05-17T16:25:55.950Z,64.52
2023-05-17T16:28:24.389Z,64.92
2023-05-17T16:30:53.389Z,64.69
2023-05-17T16:33:21.963Z,63.69
2023-05-17T16:35:50.290Z,63.62
2023-05-17T16:38:18.501Z,63.87
2023-05-17T16:40:46.675Z,64.07
2023-05-17T16:43:15.473Z,64.16
2023-05-17T16:45:44.240Z,64.35
2023-05-17T16:48:13.755Z,64.21
2023-05-17T16:50:42.919Z,64.75
2023-05-17T16:53:11.616Z,65.13
2023-05-17T16:55:40.160Z,65.48
2023-05-17T16:58:08.948Z,65.94
2023-05-17T17:00:38.108Z,65.98
2023-05-17T17:03:09.254Z,66.21
2023-05-17T17:05:38.983Z,66.71
2023-05-17T17:08:15.180Z,66.70
2023-05-17T17:10:44.115Z,66.96
2023-05-17T17:13:12.323Z,67.20
2023-05-17T17:15:40.507Z,67.42
2023-05-17T17:18:08.890Z,67.62
2023-05-17T17:20:37.160Z,67.70
2023-05-17T17:23:05.286Z,67.78
2023-05-17T17:25:33.595Z,67.92
2023-05-17T17:28:03.717Z,67.89
2023-05-17T17:30:32.242Z,68.20
2023-05-17T17:33:01.163Z,68.21
2023-05-17T17:35:29.872Z,68.27
2023-05-17T17:37:58.172Z,68.38
2023-05-17T17:40:26.720Z,68.44
2023-05-17T17:42:55.485Z,68.77
2023-05-17T17:45:24.465Z,68.97
2023-05-17T17:47:53.033Z,69.18
2023-05-17T17:50:21.782Z,69.48
2023-05-17T17:52:50.559Z,69.92
2023-05-17T17:55:19.303Z,70.04
2023-05-17T17:57:47.342Z,70.02
2023-05-17T18:00:15.905Z,70.34
2023-05-17T18:02:44.778Z,70.51
2023-05-17T18:05:13.249Z,70.25
2023-05-17T18:07:41.416Z,70.48
2023-05-17T18:10:10.894Z,70.40
2023-05-17T18:12:39.239Z,70.54
2023-05-17T18:15:07.715Z,70.40
2023-05-17T18:17:36.465Z,70.35
2023-05-17T18:20:05.728Z,70.41
2023-05-17T18:22:34.474Z,70.49
2023-05-17T18:25:03.477Z,70.54
2023-05-17T18:27:31.579Z,70.63
2023-05-17T18:29:59.951Z,70.79
2023-05-17T18:32:28.400Z,70.96
2023-05-17T18:34:57.908Z,71.16
2023-05-17T18:37:26.155Z,71.07
2023-05-17T18:39:54.568Z,71.23
2023-05-17T18:42:22.775Z,71.53
2023-05-17T18:44:50.978Z,71.76
2023-05-17T18:47:19.351Z,71.60
2023-05-17T18:49:47.504Z,71.62
2023-05-17T18:52:15.755Z,71.77
2023-05-17T18:54:45.339Z,71.70
2023-05-17T18:57:14.728Z,71.73
2023-05-17T18:59:42.800Z,71.94
2023-05-17T19:02:11.011Z,72.00
2023-05-17T19:04:39.161Z,71.88
2023-05-17T19:07:07.531Z,71.88
2023-05-17T19:09:36.787Z,71.73
2023-05-17T19:12:05.856Z,71.93
2023-05-17T19:14:34.200Z,72.00
2023-05-17T19:17:03.651Z,71.90
2023-05-17T19:19:53.866Z,71.76
2023-05-17T19:22:25.350Z,71.81
2023-05-17T19:24:53.497Z,71.91
2023-05-17T19:27:22.712Z,71.93
2023-05-17T19:29:50.929Z,71.15
2023-05-17T19:32:19.237Z,69.69
2023-05-17T19:34:50.130Z,68.53
2023-05-17T19:37:18.777Z,68.08
2023-05-17T19:39:47.008Z,67.43
2023-05-17T19:42:15.341Z,67.51
2023-05-17T19:44:43.466Z,67.79
2023-05-17T19:47:11.674Z,68.04
2023-05-17T19:49:39.863Z,68.42
2023-05-17T19:52:08.768Z,68.62
2023-05-17T19:54:37.646Z,68.61
2023-05-17T19:57:06.241Z,68.19
2023-05-17T19:59:34.533Z,67.57
2023-05-17T20:02:02.659Z,67.56
2023-05-17T20:04:30.796Z,67.48
2023-05-17T20:06:59.205Z,66.91
2023-05-17T20:09:27.298Z,66.85
2023-05-17T20:11:55.486Z,67.28
2023-05-17T20:14:23.830Z,67.37
2023-05-17T20:16:52.044Z,67.44
2023-05-17T20:19:20.123Z,67.03
2023-05-17T20:21:48.950Z,66.97
2023-05-17T20:24:17.247Z,66.92
2023-05-17T20:26:45.357Z,66.67
2023-05-17T20:29:13.778Z,66.23
2023-05-17T20:31:42.518Z,65.77
2023-05-17T20:34:10.981Z,65.66
2023-05-17T20:36:39.462Z,65.73
2023-05-17T20:39:07.535Z,65.34
2023-05-17T20:41:35.773Z,64.62
2023-05-17T20:44:04.166Z,64.72
2023-05-17T20:46:33.238Z,64.60
2023-05-17T20:49:02.671Z,64.78
2023-05-17T20:51:31.562Z,65.14
2023-05-17T20:54:01.113Z,65.20
2023-05-17T20:56:29.747Z,65.43
2023-05-17T20:58:58.408Z,65.73
2023-05-17T21:01:27.059Z,65.72
2023-05-17T21:03:55.794Z,65.81
2023-05-17T21:06:24.763Z,65.58
2023-05-17T21:08:53.003Z,64.85
2023-05-17T21:11:21.486Z,65.09
2023-05-17T21:13:51.004Z,65.51
2023-05-17T21:16:19.212Z,65.66
2023-05-17T21:18:47.854Z,65.74
2023-05-17T21:21:16.496Z,65.76
2023-05-17T21:23:45.197Z,65.70
2023-05-17T21:26:13.436Z,65.76
2023-05-17T21:28:42.073Z,65.75
2023-05-17T21:31:10.385Z,65.68
2023-05-17T21:33:38.522Z,64.83
2023-05-17T21:36:06.919Z,64.59
2023-05-17T21:38:35.026Z,64.89
2023-05-17T21:41:03.693Z,65.31
2023-05-17T21:43:31.998Z,65.94
2023-05-17T21:46:00.231Z,66.11
2023-05-17T21:48:29.011Z,66.08
2023-05-17T21:50:57.670Z,66.11
2023-05-17T21:53:25.939Z,65.99
2023-05-17T21:56:02.142Z,66.21
2023-05-17T21:58:32.104Z,66.26
2023-05-17T22:01:01.561Z,66.45
2023-05-17T22:03:30.146Z,66.64
2023-05-17T22:05:58.562Z,66.62
2023-05-17T22:08:26.997Z,66.71
2023-05-17T22:10:55.272Z,66.67
2023-05-17T22:13:24.015Z,66.41
2023-05-17T22:15:55.451Z,66.67
2023-05-17T22:18:23.782Z,66.73
2023-05-17T22:20:51.953Z,66.92
2023-05-17T22:23:20.465Z,67.07
2023-05-17T22:25:48.893Z,67.08
2023-05-17T22:28:17.191Z,67.12
2023-05-17T22:30:45.209Z,66.87
2023-05-17T22:33:13.368Z,66.47
2023-05-17T22:35:41.599Z,66.57
2023-05-17T22:38:09.802Z,66.51
2023-05-17T22:40:38.444Z,66.25
2023-05-17T22:43:06.761Z,66.48
2023-05-17T22:45:34.979Z,66.59
2023-05-17T22:48:04.277Z,66.39
2023-05-17T22:50:33.320Z,66.23
2023-05-17T22:53:02.180Z,66.36
2023-05-17T22:55:30.801Z,66.67
2023-05-17T22:57:59.213Z,66.79
2023-05-17T23:00:27.362Z,66.99
2023-05-17T23:02:55.884Z,67.10
2023-05-17T23:05:24.067Z,66.86
2023-05-17T23:07:52.258Z,66.93
2023-05-17T23:10:20.810Z,66.84
2023-05-17T23:12:50.216Z,66.74
2023-05-17T23:15:20.468Z,66.70
2023-05-17T23:17:48.688Z,66.47
2023-05-17T23:20:17.424Z,66.54
2023-05-17T23:22:46.264Z,66.69
2023-05-17T23:25:15.837Z,66.66
2023-05-17T23:27:43.986Z,66.52
2023-05-17T23:30:12.322Z,66.61
2023-05-17T23:32:40.516Z,66.63
2023-05-17T23:35:09.695Z,66.49
2023-05-17T23:37:38.580Z,66.48
2023-05-17T23:40:07.725Z,66.55
2023-05-17T23:42:35.901Z,66.18
2023-05-17T23:45:04.511Z,66.08
2023-05-17T23:47:32.948Z,66.32
2023-05-17T23:50:01.473Z,66.74
2023-05-17T23:52:29.709Z,66.87
2023-05-17T23:54:58.077Z,67.07
2023-05-17T23:57:26.296Z,67.32
2023-05-17T23:59:54.450Z,67.45
